Terminal Aerodrome Forecast
Issued by NWS Cleveland, OH

Home | Current Version | Previous Version | Graphics & Text | Print | Product List | Glossary Off
Versions: 1 2 3 4 5 6 7 8 9 10 11 12 13 14 15 16 17 18 19 20 21 22 23 24 25 26 27 28 29 30 31 32 33 34 35 36

000
FTUS41 KCLE 212300
TAFCLE
TAF
KCLE 212340Z 2200/2306 24008KT P6SM BKN035
     FM220400 24006KT P6SM VCTS BKN035CB
      TEMPO 2204/2208 5SM -SHRA OVC030
     FM220800 24006KT P6SM BKN030
     FM221200 25006KT P6SM VCTS BKN030CB
     FM221700 25006KT P6SM BKN035=

USA.gov is the U.S. government's official web portal to all federal, state and local government web resources and services.